sensor_id;sensor_type;location;lat;lon;timestamp;P1;durP1;ratioP1;P2;durP2;ratioP2
17424;SDS011;8830;50.978;5.058;2022-12-18T00:02:20;74.23;;;30.50;;
17424;SDS011;8830;50.978;5.058;2022-12-18T00:04:48;75.57;;;29.87;;
17424;SDS011;8830;50.978;5.058;2022-12-18T00:07:15;73.13;;;30.90;;
17424;SDS011;8830;50.978;5.058;2022-12-18T00:09:42;68.83;;;28.93;;
17424;SDS011;8830;50.978;5.058;2022-12-18T00:12:09;65.40;;;28.50;;
17424;SDS011;8830;50.978;5.058;2022-12-18T00:14:37;78.40;;;30.93;;
17424;SDS011;8830;50.978;5.058;2022-12-18T00:17:04;69.30;;;28.70;;
17424;SDS011;8830;50.978;5.058;2022-12-18T00:19:31;72.00;;;28.37;;
17424;SDS011;8830;50.978;5.058;2022-12-18T00:21:58;74.53;;;29.23;;
17424;SDS011;8830;50.978;5.058;2022-12-18T00:24:25;69.60;;;29.37;;
17424;SDS011;8830;50.978;5.058;2022-12-18T00:26:52;72.00;;;30.40;;
17424;SDS011;8830;50.978;5.058;2022-12-18T00:29:19;72.63;;;29.37;;
17424;SDS011;8830;50.978;5.058;2022-12-18T00:31:48;63.83;;;27.73;;
17424;SDS011;8830;50.978;5.058;2022-12-18T00:34:15;70.57;;;28.10;;
17424;SDS011;8830;50.978;5.058;2022-12-18T00:36:42;66.20;;;27.50;;
17424;SDS011;8830;50.978;5.058;2022-12-18T00:39:10;66.03;;;27.90;;
17424;SDS011;8830;50.978;5.058;2022-12-18T00:41:37;65.57;;;28.33;;
17424;SDS011;8830;50.978;5.058;2022-12-18T00:44:22;65.17;;;27.50;;
17424;SDS011;8830;50.978;5.058;2022-12-18T00:46:50;67.07;;;29.70;;
17424;SDS011;8830;50.978;5.058;2022-12-18T00:49:18;66.07;;;28.77;;
17424;SDS011;8830;50.978;5.058;2022-12-18T00:51:46;67.27;;;28.50;;
17424;SDS011;8830;50.978;5.058;2022-12-18T00:54:13;69.27;;;29.10;;
17424;SDS011;8830;50.978;5.058;2022-12-18T00:56:41;64.07;;;29.37;;
17424;SDS011;8830;50.978;5.058;2022-12-18T00:59:08;72.70;;;29.13;;
17424;SDS011;8830;50.978;5.058;2022-12-18T01:01:35;63.90;;;28.07;;
17424;SDS011;8830;50.978;5.058;2022-12-18T01:04:05;67.47;;;28.37;;
17424;SDS011;8830;50.978;5.058;2022-12-18T01:06:32;65.43;;;28.93;;
17424;SDS011;8830;50.978;5.058;2022-12-18T01:08:59;66.07;;;28.63;;
17424;SDS011;8830;50.978;5.058;2022-12-18T01:11:26;64.97;;;28.43;;
17424;SDS011;8830;50.978;5.058;2022-12-18T01:13:53;63.90;;;28.90;;
17424;SDS011;8830;50.978;5.058;2022-12-18T01:16:21;70.33;;;28.13;;
17424;SDS011;8830;50.978;5.058;2022-12-18T01:18:50;69.37;;;28.03;;
17424;SDS011;8830;50.978;5.058;2022-12-18T01:21:20;70.27;;;29.40;;
17424;SDS011;8830;50.978;5.058;2022-12-18T01:23:50;77.07;;;29.83;;
17424;SDS011;8830;50.978;5.058;2022-12-18T01:26:18;66.70;;;29.07;;
17424;SDS011;8830;50.978;5.058;2022-12-18T01:28:45;61.07;;;28.33;;
17424;SDS011;8830;50.978;5.058;2022-12-18T01:31:13;61.13;;;26.60;;
17424;SDS011;8830;50.978;5.058;2022-12-18T01:33:48;69.00;;;29.03;;
17424;SDS011;8830;50.978;5.058;2022-12-18T01:36:16;65.47;;;26.57;;
17424;SDS011;8830;50.978;5.058;2022-12-18T01:38:47;64.43;;;27.00;;
17424;SDS011;8830;50.978;5.058;2022-12-18T01:41:14;63.53;;;25.70;;
17424;SDS011;8830;50.978;5.058;2022-12-18T01:43:44;56.73;;;26.53;;
17424;SDS011;8830;50.978;5.058;2022-12-18T01:46:13;55.97;;;25.23;;
17424;SDS011;8830;50.978;5.058;2022-12-18T01:48:41;67.30;;;26.57;;
17424;SDS011;8830;50.978;5.058;2022-12-18T01:51:09;64.73;;;26.10;;
17424;SDS011;8830;50.978;5.058;2022-12-18T01:53:37;66.47;;;27.53;;
17424;SDS011;8830;50.978;5.058;2022-12-18T01:56:08;62.30;;;27.30;;
17424;SDS011;8830;50.978;5.058;2022-12-18T01:58:39;65.33;;;26.70;;
17424;SDS011;8830;50.978;5.058;2022-12-18T02:01:11;68.87;;;27.13;;
17424;SDS011;8830;50.978;5.058;2022-12-18T02:03:40;57.07;;;26.10;;
17424;SDS011;8830;50.978;5.058;2022-12-18T02:06:09;61.03;;;24.97;;
17424;SDS011;8830;50.978;5.058;2022-12-18T02:08:43;61.27;;;25.30;;
17424;SDS011;8830;50.978;5.058;2022-12-18T02:11:24;56.20;;;24.83;;
17424;SDS011;8830;50.978;5.058;2022-12-18T02:14:00;66.77;;;26.80;;
17424;SDS011;8830;50.978;5.058;2022-12-18T02:16:34;59.47;;;25.60;;
17424;SDS011;8830;50.978;5.058;2022-12-18T02:19:06;59.83;;;25.70;;
17424;SDS011;8830;50.978;5.058;2022-12-18T02:21:49;63.30;;;26.30;;
17424;SDS011;8830;50.978;5.058;2022-12-18T02:24:29;55.03;;;25.07;;
17424;SDS011;8830;50.978;5.058;2022-12-18T02:27:02;66.63;;;26.20;;
17424;SDS011;8830;50.978;5.058;2022-12-18T02:29:34;58.77;;;26.13;;
17424;SDS011;8830;50.978;5.058;2022-12-18T02:32:06;62.97;;;24.67;;
17424;SDS011;8830;50.978;5.058;2022-12-18T02:34:37;63.93;;;26.00;;
17424;SDS011;8830;50.978;5.058;2022-12-18T02:37:06;57.83;;;26.20;;
17424;SDS011;8830;50.978;5.058;2022-12-18T02:39:37;52.10;;;23.60;;
17424;SDS011;8830;50.978;5.058;2022-12-18T02:42:08;55.40;;;24.13;;
17424;SDS011;8830;50.978;5.058;2022-12-18T02:44:41;54.90;;;26.07;;
17424;SDS011;8830;50.978;5.058;2022-12-18T02:47:10;57.33;;;25.77;;
17424;SDS011;8830;50.978;5.058;2022-12-18T02:49:40;57.30;;;24.63;;
17424;SDS011;8830;50.978;5.058;2022-12-18T02:52:17;51.83;;;23.43;;
17424;SDS011;8830;50.978;5.058;2022-12-18T02:54:57;57.83;;;24.03;;
17424;SDS011;8830;50.978;5.058;2022-12-18T02:57:36;57.50;;;25.13;;
17424;SDS011;8830;50.978;5.058;2022-12-18T03:00:10;53.93;;;24.63;;
17424;SDS011;8830;50.978;5.058;2022-12-18T03:02:41;59.70;;;24.03;;
17424;SDS011;8830;50.978;5.058;2022-12-18T03:05:15;56.47;;;23.57;;
17424;SDS011;8830;50.978;5.058;2022-12-18T03:07:46;56.17;;;24.93;;
17424;SDS011;8830;50.978;5.058;2022-12-18T03:10:19;43.33;;;20.97;;
17424;SDS011;8830;50.978;5.058;2022-12-18T03:12:52;45.67;;;22.20;;
17424;SDS011;8830;50.978;5.058;2022-12-18T03:15:23;49.60;;;22.63;;
17424;SDS011;8830;50.978;5.058;2022-12-18T03:17:54;50.00;;;23.20;;
17424;SDS011;8830;50.978;5.058;2022-12-18T03:20:25;59.10;;;23.10;;
17424;SDS011;8830;50.978;5.058;2022-12-18T03:22:56;54.97;;;24.37;;
17424;SDS011;8830;50.978;5.058;2022-12-18T03:25:26;44.50;;;21.87;;
17424;SDS011;8830;50.978;5.058;2022-12-18T03:27:58;50.13;;;22.47;;
17424;SDS011;8830;50.978;5.058;2022-12-18T03:30:30;45.83;;;20.57;;
17424;SDS011;8830;50.978;5.058;2022-12-18T03:33:01;45.20;;;21.57;;
17424;SDS011;8830;50.978;5.058;2022-12-18T03:35:34;41.00;;;20.07;;
17424;SDS011;8830;50.978;5.058;2022-12-18T03:38:04;48.83;;;21.67;;
17424;SDS011;8830;50.978;5.058;2022-12-18T03:40:31;52.10;;;22.37;;
17424;SDS011;8830;50.978;5.058;2022-12-18T03:43:07;42.80;;;20.23;;
17424;SDS011;8830;50.978;5.058;2022-12-18T03:45:41;43.53;;;20.47;;
17424;SDS011;8830;50.978;5.058;2022-12-18T03:48:16;45.70;;;21.60;;
17424;SDS011;8830;50.978;5.058;2022-12-18T03:50:49;41.70;;;19.73;;
17424;SDS011;8830;50.978;5.058;2022-12-18T03:53:24;46.33;;;20.17;;
17424;SDS011;8830;50.978;5.058;2022-12-18T03:55:58;41.17;;;19.77;;
17424;SDS011;8830;50.978;5.058;2022-12-18T03:58:28;44.23;;;20.80;;
17424;SDS011;8830;50.978;5.058;2022-12-18T04:00:59;41.53;;;19.27;;
17424;SDS011;8830;50.978;5.058;2022-12-18T04:03:28;44.33;;;20.10;;
17424;SDS011;8830;50.978;5.058;2022-12-18T04:05:56;40.33;;;19.57;;
17424;SDS011;8830;50.978;5.058;2022-12-18T04:08:26;38.00;;;17.50;;
17424;SDS011;8830;50.978;5.058;2022-12-18T04:10:53;44.23;;;19.80;;
17424;SDS011;8830;50.978;5.058;2022-12-18T04:13:23;37.67;;;19.27;;
17424;SDS011;8830;50.978;5.058;2022-12-18T04:15:52;45.23;;;19.50;;
17424;SDS011;8830;50.978;5.058;2022-12-18T04:18:19;41.97;;;19.67;;
17424;SDS011;8830;50.978;5.058;2022-12-18T04:20:46;43.00;;;19.37;;
17424;SDS011;8830;50.978;5.058;2022-12-18T04:23:13;41.33;;;20.07;;
17424;SDS011;8830;50.978;5.058;2022-12-18T04:25:40;47.80;;;21.97;;
17424;SDS011;8830;50.978;5.058;2022-12-18T04:28:07;42.67;;;20.27;;
17424;SDS011;8830;50.978;5.058;2022-12-18T04:30:35;48.23;;;20.73;;
17424;SDS011;8830;50.978;5.058;2022-12-18T04:33:03;40.80;;;19.70;;
17424;SDS011;8830;50.978;5.058;2022-12-18T04:35:33;40.70;;;19.40;;
17424;SDS011;8830;50.978;5.058;2022-12-18T04:38:00;44.07;;;19.73;;
17424;SDS011;8830;50.978;5.058;2022-12-18T04:40:27;46.47;;;19.53;;
17424;SDS011;8830;50.978;5.058;2022-12-18T04:42:54;30.60;;;17.43;;
17424;SDS011;8830;50.978;5.058;2022-12-18T04:45:21;37.80;;;18.37;;
17424;SDS011;8830;50.978;5.058;2022-12-18T04:47:48;40.77;;;19.13;;
17424;SDS011;8830;50.978;5.058;2022-12-18T04:50:17;41.87;;;18.93;;
17424;SDS011;8830;50.978;5.058;2022-12-18T04:52:44;44.33;;;18.17;;
17424;SDS011;8830;50.978;5.058;2022-12-18T04:55:11;34.67;;;17.70;;
17424;SDS011;8830;50.978;5.058;2022-12-18T04:57:38;41.53;;;19.63;;
17424;SDS011;8830;50.978;5.058;2022-12-18T05:00:07;35.53;;;17.43;;
17424;SDS011;8830;50.978;5.058;2022-12-18T05:02:34;44.17;;;19.13;;
17424;SDS011;8830;50.978;5.058;2022-12-18T05:05:01;37.30;;;18.60;;
17424;SDS011;8830;50.978;5.058;2022-12-18T05:07:30;34.70;;;17.47;;
17424;SDS011;8830;50.978;5.058;2022-12-18T05:09:57;35.97;;;17.93;;
17424;SDS011;8830;50.978;5.058;2022-12-18T05:12:24;37.63;;;17.93;;
17424;SDS011;8830;50.978;5.058;2022-12-18T05:14:51;35.17;;;17.30;;
17424;SDS011;8830;50.978;5.058;2022-12-18T05:17:18;28.67;;;16.00;;
17424;SDS011;8830;50.978;5.058;2022-12-18T05:19:45;40.43;;;17.70;;
17424;SDS011;8830;50.978;5.058;2022-12-18T05:22:12;24.60;;;13.60;;
17424;SDS011;8830;50.978;5.058;2022-12-18T05:24:42;36.97;;;17.50;;
17424;SDS011;8830;50.978;5.058;2022-12-18T05:27:09;40.33;;;17.77;;
17424;SDS011;8830;50.978;5.058;2022-12-18T05:29:36;33.30;;;16.83;;
17424;SDS011;8830;50.978;5.058;2022-12-18T05:32:03;29.67;;;15.73;;
17424;SDS011;8830;50.978;5.058;2022-12-18T05:34:31;34.20;;;16.20;;
17424;SDS011;8830;50.978;5.058;2022-12-18T05:36:58;29.93;;;15.97;;
17424;SDS011;8830;50.978;5.058;2022-12-18T05:39:25;27.30;;;15.00;;
17424;SDS011;8830;50.978;5.058;2022-12-18T05:41:54;30.57;;;15.83;;
17424;SDS011;8830;50.978;5.058;2022-12-18T05:44:21;34.93;;;16.17;;
17424;SDS011;8830;50.978;5.058;2022-12-18T05:46:48;30.20;;;14.77;;
17424;SDS011;8830;50.978;5.058;2022-12-18T05:49:14;28.90;;;14.80;;
17424;SDS011;8830;50.978;5.058;2022-12-18T05:51:43;28.07;;;15.70;;
17424;SDS011;8830;50.978;5.058;2022-12-18T05:54:10;34.00;;;16.43;;
17424;SDS011;8830;50.978;5.058;2022-12-18T05:56:37;29.43;;;15.53;;
17424;SDS011;8830;50.978;5.058;2022-12-18T05:59:05;29.50;;;15.10;;
17424;SDS011;8830;50.978;5.058;2022-12-18T06:01:32;32.47;;;16.57;;
17424;SDS011;8830;50.978;5.058;2022-12-18T06:03:59;29.80;;;15.10;;
17424;SDS011;8830;50.978;5.058;2022-12-18T06:06:27;34.37;;;18.37;;
17424;SDS011;8830;50.978;5.058;2022-12-18T06:08:55;32.27;;;15.83;;
17424;SDS011;8830;50.978;5.058;2022-12-18T06:11:23;31.77;;;15.77;;
17424;SDS011;8830;50.978;5.058;2022-12-18T06:13:51;33.37;;;16.23;;
17424;SDS011;8830;50.978;5.058;2022-12-18T06:16:21;34.77;;;16.67;;
17424;SDS011;8830;50.978;5.058;2022-12-18T06:18:48;31.57;;;15.43;;
17424;SDS011;8830;50.978;5.058;2022-12-18T06:21:15;28.57;;;16.13;;
17424;SDS011;8830;50.978;5.058;2022-12-18T06:23:42;32.80;;;15.67;;
17424;SDS011;8830;50.978;5.058;2022-12-18T06:26:10;32.63;;;15.30;;
17424;SDS011;8830;50.978;5.058;2022-12-18T06:28:38;33.13;;;15.33;;
17424;SDS011;8830;50.978;5.058;2022-12-18T06:31:05;36.40;;;15.83;;
17424;SDS011;8830;50.978;5.058;2022-12-18T06:33:35;35.00;;;17.07;;
17424;SDS011;8830;50.978;5.058;2022-12-18T06:36:04;35.60;;;15.30;;
17424;SDS011;8830;50.978;5.058;2022-12-18T06:38:32;31.70;;;14.47;;
17424;SDS011;8830;50.978;5.058;2022-12-18T06:41:00;33.23;;;14.80;;
17424;SDS011;8830;50.978;5.058;2022-12-18T06:43:27;31.07;;;15.13;;
17424;SDS011;8830;50.978;5.058;2022-12-18T06:46:01;34.30;;;14.57;;
17424;SDS011;8830;50.978;5.058;2022-12-18T06:48:28;25.27;;;12.73;;
17424;SDS011;8830;50.978;5.058;2022-12-18T06:50:57;26.43;;;13.43;;
17424;SDS011;8830;50.978;5.058;2022-12-18T06:53:26;26.33;;;13.23;;
17424;SDS011;8830;50.978;5.058;2022-12-18T06:55:58;22.07;;;12.87;;
17424;SDS011;8830;50.978;5.058;2022-12-18T06:58:26;23.50;;;12.30;;
17424;SDS011;8830;50.978;5.058;2022-12-18T07:00:54;27.43;;;13.60;;
17424;SDS011;8830;50.978;5.058;2022-12-18T07:03:26;21.40;;;12.90;;
17424;SDS011;8830;50.978;5.058;2022-12-18T07:05:53;26.43;;;12.23;;
17424;SDS011;8830;50.978;5.058;2022-12-18T07:08:21;28.73;;;13.43;;
17424;SDS011;8830;50.978;5.058;2022-12-18T07:10:48;25.77;;;13.47;;
17424;SDS011;8830;50.978;5.058;2022-12-18T07:13:16;20.93;;;11.87;;
17424;SDS011;8830;50.978;5.058;2022-12-18T07:15:43;21.53;;;13.07;;
17424;SDS011;8830;50.978;5.058;2022-12-18T07:18:10;24.63;;;11.77;;
17424;SDS011;8830;50.978;5.058;2022-12-18T07:20:37;23.80;;;13.07;;
17424;SDS011;8830;50.978;5.058;2022-12-18T07:23:05;23.43;;;13.10;;
17424;SDS011;8830;50.978;5.058;2022-12-18T07:25:34;20.13;;;12.73;;
17424;SDS011;8830;50.978;5.058;2022-12-18T07:28:02;25.93;;;12.87;;
17424;SDS011;8830;50.978;5.058;2022-12-18T07:30:29;23.13;;;13.10;;
17424;SDS011;8830;50.978;5.058;2022-12-18T07:32:56;20.23;;;11.77;;
17424;SDS011;8830;50.978;5.058;2022-12-18T07:35:23;24.60;;;12.57;;
17424;SDS011;8830;50.978;5.058;2022-12-18T07:37:50;25.07;;;13.40;;
17424;SDS011;8830;50.978;5.058;2022-12-18T07:40:17;23.20;;;12.17;;
17424;SDS011;8830;50.978;5.058;2022-12-18T07:42:47;25.90;;;12.77;;
17424;SDS011;8830;50.978;5.058;2022-12-18T07:45:15;22.13;;;12.57;;
17424;SDS011;8830;50.978;5.058;2022-12-18T07:47:43;23.17;;;13.83;;
17424;SDS011;8830;50.978;5.058;2022-12-18T07:50:10;23.03;;;11.77;;
17424;SDS011;8830;50.978;5.058;2022-12-18T07:52:41;19.77;;;12.40;;
17424;SDS011;8830;50.978;5.058;2022-12-18T07:55:12;23.90;;;12.97;;
17424;SDS011;8830;50.978;5.058;2022-12-18T07:57:44;22.53;;;11.70;;
17424;SDS011;8830;50.978;5.058;2022-12-18T08:00:15;21.87;;;11.90;;
17424;SDS011;8830;50.978;5.058;2022-12-18T08:02:43;24.17;;;13.00;;
17424;SDS011;8830;50.978;5.058;2022-12-18T08:05:10;21.87;;;11.43;;
17424;SDS011;8830;50.978;5.058;2022-12-18T08:07:40;19.10;;;11.23;;
17424;SDS011;8830;50.978;5.058;2022-12-18T08:10:07;25.33;;;12.00;;
17424;SDS011;8830;50.978;5.058;2022-12-18T08:12:35;22.70;;;11.50;;
17424;SDS011;8830;50.978;5.058;2022-12-18T08:15:05;20.83;;;11.97;;
17424;SDS011;8830;50.978;5.058;2022-12-18T08:17:35;19.37;;;11.70;;
17424;SDS011;8830;50.978;5.058;2022-12-18T08:20:03;21.40;;;11.63;;
17424;SDS011;8830;50.978;5.058;2022-12-18T08:22:30;24.40;;;12.77;;
17424;SDS011;8830;50.978;5.058;2022-12-18T08:25:04;22.67;;;11.77;;
17424;SDS011;8830;50.978;5.058;2022-12-18T08:27:32;21.20;;;12.80;;
17424;SDS011;8830;50.978;5.058;2022-12-18T08:30:00;20.87;;;13.03;;
17424;SDS011;8830;50.978;5.058;2022-12-18T08:32:27;23.67;;;13.60;;
17424;SDS011;8830;50.978;5.058;2022-12-18T08:34:56;23.33;;;12.50;;
17424;SDS011;8830;50.978;5.058;2022-12-18T08:37:23;30.77;;;13.00;;
17424;SDS011;8830;50.978;5.058;2022-12-18T08:39:53;20.00;;;13.20;;
17424;SDS011;8830;50.978;5.058;2022-12-18T08:42:26;20.50;;;13.00;;
17424;SDS011;8830;50.978;5.058;2022-12-18T08:45:11;23.60;;;13.10;;
17424;SDS011;8830;50.978;5.058;2022-12-18T08:47:38;22.67;;;12.03;;
17424;SDS011;8830;50.978;5.058;2022-12-18T08:50:08;20.37;;;11.80;;
17424;SDS011;8830;50.978;5.058;2022-12-18T08:52:36;23.23;;;12.50;;
17424;SDS011;8830;50.978;5.058;2022-12-18T08:55:06;17.83;;;12.23;;
17424;SDS011;8830;50.978;5.058;2022-12-18T08:57:34;22.90;;;12.13;;
17424;SDS011;8830;50.978;5.058;2022-12-18T09:00:11;17.30;;;11.83;;
17424;SDS011;8830;50.978;5.058;2022-12-18T09:02:39;16.03;;;11.33;;
17424;SDS011;8830;50.978;5.058;2022-12-18T09:05:10;19.97;;;11.50;;
17424;SDS011;8830;50.978;5.058;2022-12-18T09:07:38;25.47;;;12.43;;
17424;SDS011;8830;50.978;5.058;2022-12-18T09:10:06;18.07;;;10.87;;
17424;SDS011;8830;50.978;5.058;2022-12-18T09:12:34;20.07;;;11.97;;
17424;SDS011;8830;50.978;5.058;2022-12-18T09:15:02;20.13;;;11.90;;
17424;SDS011;8830;50.978;5.058;2022-12-18T09:17:31;14.77;;;10.93;;
17424;SDS011;8830;50.978;5.058;2022-12-18T09:19:59;17.57;;;11.17;;
17424;SDS011;8830;50.978;5.058;2022-12-18T09:22:28;18.17;;;11.10;;
17424;SDS011;8830;50.978;5.058;2022-12-18T09:25:00;16.57;;;11.13;;
17424;SDS011;8830;50.978;5.058;2022-12-18T09:27:30;17.93;;;11.03;;
17424;SDS011;8830;50.978;5.058;2022-12-18T09:30:04;18.93;;;11.50;;
17424;SDS011;8830;50.978;5.058;2022-12-18T09:32:38;21.63;;;11.90;;
17424;SDS011;8830;50.978;5.058;2022-12-18T09:35:08;22.10;;;11.07;;
17424;SDS011;8830;50.978;5.058;2022-12-18T09:37:45;14.90;;;10.93;;
17424;SDS011;8830;50.978;5.058;2022-12-18T09:40:20;17.10;;;10.87;;
17424;SDS011;8830;50.978;5.058;2022-12-18T09:42:50;14.20;;;10.07;;
17424;SDS011;8830;50.978;5.058;2022-12-18T09:45:23;17.27;;;11.70;;
17424;SDS011;8830;50.978;5.058;2022-12-18T09:47:52;16.77;;;11.10;;
17424;SDS011;8830;50.978;5.058;2022-12-18T09:50:24;15.93;;;11.30;;
17424;SDS011;8830;50.978;5.058;2022-12-18T09:53:01;16.50;;;10.97;;
17424;SDS011;8830;50.978;5.058;2022-12-18T09:58:07;14.40;;;10.57;;
17424;SDS011;8830;50.978;5.058;2022-12-18T10:00:41;16.30;;;11.30;;
17424;SDS011;8830;50.978;5.058;2022-12-18T10:03:09;18.00;;;11.47;;
17424;SDS011;8830;50.978;5.058;2022-12-18T10:05:41;16.00;;;11.30;;
17424;SDS011;8830;50.978;5.058;2022-12-18T10:08:16;17.23;;;11.33;;
17424;SDS011;8830;50.978;5.058;2022-12-18T10:10:51;20.13;;;10.90;;
17424;SDS011;8830;50.978;5.058;2022-12-18T10:13:22;16.47;;;10.00;;
17424;SDS011;8830;50.978;5.058;2022-12-18T10:16:04;17.17;;;11.63;;
17424;SDS011;8830;50.978;5.058;2022-12-18T10:18:52;16.33;;;10.50;;
17424;SDS011;8830;50.978;5.058;2022-12-18T10:21:47;16.07;;;10.83;;
17424;SDS011;8830;50.978;5.058;2022-12-18T10:27:16;16.50;;;10.87;;
17424;SDS011;8830;50.978;5.058;2022-12-18T10:29:53;15.33;;;11.33;;
17424;SDS011;8830;50.978;5.058;2022-12-18T10:32:25;11.60;;;10.13;;
17424;SDS011;8830;50.978;5.058;2022-12-18T10:34:55;13.97;;;9.77;;
17424;SDS011;8830;50.978;5.058;2022-12-18T10:37:25;13.90;;;10.40;;
17424;SDS011;8830;50.978;5.058;2022-12-18T10:42:45;14.60;;;10.43;;
17424;SDS011;8830;50.978;5.058;2022-12-18T10:45:19;12.67;;;9.63;;
17424;SDS011;8830;50.978;5.058;2022-12-18T10:47:54;14.97;;;9.90;;
17424;SDS011;8830;50.978;5.058;2022-12-18T10:50:26;12.57;;;9.50;;
17424;SDS011;8830;50.978;5.058;2022-12-18T10:52:59;9.83;;;8.83;;
17424;SDS011;8830;50.978;5.058;2022-12-18T10:55:30;14.50;;;10.03;;
17424;SDS011;8830;50.978;5.058;2022-12-18T10:58:13;16.13;;;9.53;;
17424;SDS011;8830;50.978;5.058;2022-12-18T11:01:01;11.83;;;9.80;;
17424;SDS011;8830;50.978;5.058;2022-12-18T11:03:30;12.83;;;9.83;;
17424;SDS011;8830;50.978;5.058;2022-12-18T11:06:08;11.63;;;9.80;;
17424;SDS011;8830;50.978;5.058;2022-12-18T11:08:38;11.63;;;9.07;;
17424;SDS011;8830;50.978;5.058;2022-12-18T11:11:22;15.40;;;10.53;;
17424;SDS011;8830;50.978;5.058;2022-12-18T11:13:53;12.70;;;9.63;;
17424;SDS011;8830;50.978;5.058;2022-12-18T11:16:28;13.83;;;9.77;;
17424;SDS011;8830;50.978;5.058;2022-12-18T11:19:07;17.10;;;10.93;;
17424;SDS011;8830;50.978;5.058;2022-12-18T11:21:39;16.13;;;9.73;;
17424;SDS011;8830;50.978;5.058;2022-12-18T11:24:13;16.77;;;10.47;;
17424;SDS011;8830;50.978;5.058;2022-12-18T11:26:48;15.80;;;10.57;;
17424;SDS011;8830;50.978;5.058;2022-12-18T11:29:17;13.03;;;10.63;;
17424;SDS011;8830;50.978;5.058;2022-12-18T11:31:50;14.07;;;9.97;;
17424;SDS011;8830;50.978;5.058;2022-12-18T11:34:19;11.90;;;10.17;;
17424;SDS011;8830;50.978;5.058;2022-12-18T11:36:52;9.70;;;8.63;;
17424;SDS011;8830;50.978;5.058;2022-12-18T11:39:21;17.87;;;11.60;;
17424;SDS011;8830;50.978;5.058;2022-12-18T11:41:59;15.17;;;11.30;;
17424;SDS011;8830;50.978;5.058;2022-12-18T11:44:42;15.23;;;11.87;;
17424;SDS011;8830;50.978;5.058;2022-12-18T11:47:27;21.27;;;15.53;;
17424;SDS011;8830;50.978;5.058;2022-12-18T11:50:05;14.67;;;11.97;;
17424;SDS011;8830;50.978;5.058;2022-12-18T11:52:53;14.90;;;11.97;;
17424;SDS011;8830;50.978;5.058;2022-12-18T11:55:25;16.77;;;11.27;;
17424;SDS011;8830;50.978;5.058;2022-12-18T11:58:04;13.27;;;10.67;;
17424;SDS011;8830;50.978;5.058;2022-12-18T12:00:42;18.83;;;11.73;;
17424;SDS011;8830;50.978;5.058;2022-12-18T12:03:22;29.43;;;17.10;;
17424;SDS011;8830;50.978;5.058;2022-12-18T12:06:08;16.40;;;11.73;;
17424;SDS011;8830;50.978;5.058;2022-12-18T12:08:49;15.50;;;11.17;;
17424;SDS011;8830;50.978;5.058;2022-12-18T12:11:31;18.07;;;11.43;;
17424;SDS011;8830;50.978;5.058;2022-12-18T12:14:20;18.60;;;12.63;;
17424;SDS011;8830;50.978;5.058;2022-12-18T12:17:03;11.93;;;10.23;;
17424;SDS011;8830;50.978;5.058;2022-12-18T12:19:41;14.30;;;10.30;;
17424;SDS011;8830;50.978;5.058;2022-12-18T12:22:16;15.13;;;11.13;;
17424;SDS011;8830;50.978;5.058;2022-12-18T12:24:53;15.57;;;11.70;;
17424;SDS011;8830;50.978;5.058;2022-12-18T12:27:34;16.87;;;12.23;;
17424;SDS011;8830;50.978;5.058;2022-12-18T12:30:16;15.33;;;11.47;;
17424;SDS011;8830;50.978;5.058;2022-12-18T12:33:00;16.60;;;12.63;;
17424;SDS011;8830;50.978;5.058;2022-12-18T12:35:53;16.10;;;11.77;;
17424;SDS011;8830;50.978;5.058;2022-12-18T12:38:31;21.70;;;12.70;;
17424;SDS011;8830;50.978;5.058;2022-12-18T12:41:05;18.53;;;11.90;;
17424;SDS011;8830;50.978;5.058;2022-12-18T12:43:56;14.73;;;11.20;;
17424;SDS011;8830;50.978;5.058;2022-12-18T12:46:26;14.43;;;11.20;;
17424;SDS011;8830;50.978;5.058;2022-12-18T12:48:55;20.87;;;12.63;;
17424;SDS011;8830;50.978;5.058;2022-12-18T12:51:27;19.70;;;12.63;;
17424;SDS011;8830;50.978;5.058;2022-12-18T12:53:59;14.00;;;11.23;;
17424;SDS011;8830;50.978;5.058;2022-12-18T12:56:30;16.90;;;12.13;;
17424;SDS011;8830;50.978;5.058;2022-12-18T12:59:04;17.37;;;11.97;;
17424;SDS011;8830;50.978;5.058;2022-12-18T13:01:41;15.67;;;11.70;;
17424;SDS011;8830;50.978;5.058;2022-12-18T13:04:21;17.87;;;12.60;;
17424;SDS011;8830;50.978;5.058;2022-12-18T13:07:12;12.97;;;11.60;;
17424;SDS011;8830;50.978;5.058;2022-12-18T13:12:57;15.40;;;11.83;;
17424;SDS011;8830;50.978;5.058;2022-12-18T13:15:32;17.00;;;11.93;;
17424;SDS011;8830;50.978;5.058;2022-12-18T13:18:22;17.30;;;12.33;;
17424;SDS011;8830;50.978;5.058;2022-12-18T13:23:39;19.77;;;13.97;;
17424;SDS011;8830;50.978;5.058;2022-12-18T13:28:59;17.50;;;12.27;;
17424;SDS011;8830;50.978;5.058;2022-12-18T13:34:29;19.03;;;11.77;;
17424;SDS011;8830;50.978;5.058;2022-12-18T13:36:57;15.83;;;12.57;;
17424;SDS011;8830;50.978;5.058;2022-12-18T13:40:06;15.77;;;12.07;;
17424;SDS011;8830;50.978;5.058;2022-12-18T13:43:27;15.73;;;11.50;;
17424;SDS011;8830;50.978;5.058;2022-12-18T13:46:01;15.13;;;13.33;;
17424;SDS011;8830;50.978;5.058;2022-12-18T13:48:32;16.90;;;12.37;;
17424;SDS011;8830;50.978;5.058;2022-12-18T13:51:04;19.17;;;12.30;;
17424;SDS011;8830;50.978;5.058;2022-12-18T13:53:36;17.17;;;12.40;;
17424;SDS011;8830;50.978;5.058;2022-12-18T13:56:13;17.50;;;12.10;;
17424;SDS011;8830;50.978;5.058;2022-12-18T13:58:42;14.93;;;11.70;;
17424;SDS011;8830;50.978;5.058;2022-12-18T14:01:21;16.93;;;13.43;;
17424;SDS011;8830;50.978;5.058;2022-12-18T14:03:49;16.67;;;13.00;;
17424;SDS011;8830;50.978;5.058;2022-12-18T14:06:23;16.20;;;12.87;;
17424;SDS011;8830;50.978;5.058;2022-12-18T14:08:52;20.30;;;12.53;;
17424;SDS011;8830;50.978;5.058;2022-12-18T14:11:20;21.40;;;12.87;;
17424;SDS011;8830;50.978;5.058;2022-12-18T14:13:49;20.10;;;13.80;;
17424;SDS011;8830;50.978;5.058;2022-12-18T14:16:19;19.23;;;13.87;;
17424;SDS011;8830;50.978;5.058;2022-12-18T14:18:48;18.13;;;13.23;;
17424;SDS011;8830;50.978;5.058;2022-12-18T14:21:21;18.17;;;13.47;;
17424;SDS011;8830;50.978;5.058;2022-12-18T14:23:54;18.77;;;14.23;;
17424;SDS011;8830;50.978;5.058;2022-12-18T14:26:30;18.77;;;13.67;;
17424;SDS011;8830;50.978;5.058;2022-12-18T14:28:59;20.27;;;14.80;;
17424;SDS011;8830;50.978;5.058;2022-12-18T14:31:29;19.27;;;13.73;;
17424;SDS011;8830;50.978;5.058;2022-12-18T14:33:57;20.00;;;14.07;;
17424;SDS011;8830;50.978;5.058;2022-12-18T14:36:27;20.90;;;15.37;;
17424;SDS011;8830;50.978;5.058;2022-12-18T14:38:56;21.43;;;15.60;;
17424;SDS011;8830;50.978;5.058;2022-12-18T14:41:26;17.70;;;13.47;;
17424;SDS011;8830;50.978;5.058;2022-12-18T14:43:54;20.57;;;14.33;;
17424;SDS011;8830;50.978;5.058;2022-12-18T14:46:28;17.73;;;13.90;;
17424;SDS011;8830;50.978;5.058;2022-12-18T14:48:59;17.90;;;14.23;;
17424;SDS011;8830;50.978;5.058;2022-12-18T14:51:29;16.73;;;14.23;;
17424;SDS011;8830;50.978;5.058;2022-12-18T14:54:00;19.80;;;14.23;;
17424;SDS011;8830;50.978;5.058;2022-12-18T14:56:29;21.97;;;15.30;;
17424;SDS011;8830;50.978;5.058;2022-12-18T14:58:57;22.67;;;16.10;;
17424;SDS011;8830;50.978;5.058;2022-12-18T15:01:30;24.13;;;15.83;;
17424;SDS011;8830;50.978;5.058;2022-12-18T15:04:00;22.30;;;15.40;;
17424;SDS011;8830;50.978;5.058;2022-12-18T15:06:29;23.10;;;16.30;;
17424;SDS011;8830;50.978;5.058;2022-12-18T15:09:00;26.13;;;16.30;;
17424;SDS011;8830;50.978;5.058;2022-12-18T15:11:34;26.33;;;16.57;;
17424;SDS011;8830;50.978;5.058;2022-12-18T15:14:22;25.47;;;16.27;;
17424;SDS011;8830;50.978;5.058;2022-12-18T15:16:58;22.90;;;17.23;;
17424;SDS011;8830;50.978;5.058;2022-12-18T15:19:28;34.53;;;18.77;;
17424;SDS011;8830;50.978;5.058;2022-12-18T15:22:02;25.40;;;17.87;;